Time;durP1;ratioP1;P1;durP2;ratioP2;P2;SDS_P1;SDS_P2;PMS_P1;PMS_P2;Temp;Humidity;BMP_temperature;BMP_pressure;BME280_temperature;BME280_humidity;BME280_pressure;Samples;Min_cycle;Max_cycle;Signal;HPM_P1;HPM_P2
2022/11/21 00:00:33;;;;;;;1999.90;999.90;;;;;;;4.59;100.00;93528.25;4979298;28;20198;-71
2022/11/21 00:03:00;;;;;;;1999.90;999.90;;;;;;;4.62;100.00;93538.25;4979082;28;20211;-70
2022/11/21 00:05:26;;;;;;;1999.90;999.90;;;;;;;4.63;100.00;93531.66;4979570;28;20201;-70
2022/11/21 00:07:51;;;;;;;1999.90;999.90;;;;;;;4.62;100.00;93538.25;4979526;28;20254;-71
2022/11/21 00:10:16;;;;;;;1999.90;999.90;;;;;;;4.57;100.00;93547.59;4978537;28;20186;-71
2022/11/21 00:12:42;;;;;;;1999.90;999.90;;;;;;;4.59;100.00;93560.69;4978837;28;20210;-71
2022/11/21 00:15:07;;;;;;;1999.90;999.90;;;;;;;4.58;100.00;93556.44;4978814;28;20188;-73
2022/11/21 00:17:33;;;;;;;1999.90;999.90;;;;;;;4.58;100.00;93580.75;4978755;28;20185;-62
2022/11/21 00:19:58;;;;;;;1999.90;999.90;;;;;;;4.55;100.00;93565.38;4978773;28;20184;-65
2022/11/21 00:22:23;;;;;;;1999.90;999.90;;;;;;;4.57;100.00;93579.25;4978702;28;20287;-66
2022/11/21 00:24:49;;;;;;;1999.90;999.90;;;;;;;4.55;100.00;93576.19;4978645;28;20267;-65
2022/11/21 00:27:14;;;;;;;1999.90;999.90;;;;;;;4.60;100.00;93578.44;4978761;28;20187;-66
2022/11/21 00:29:39;;;;;;;1999.90;999.90;;;;;;;4.57;100.00;93588.13;4978837;28;20180;-66
2022/11/21 00:32:05;;;;;;;1999.90;999.90;;;;;;;4.58;100.00;93592.34;4979166;28;20262;-64
2022/11/21 00:34:30;;;;;;;1999.90;999.90;;;;;;;4.58;100.00;93605.09;4978571;28;20176;-65
2022/11/21 00:36:55;;;;;;;1999.90;999.90;;;;;;;4.62;100.00;93611.22;4978997;28;20180;-68
2022/11/21 00:39:21;;;;;;;1999.90;999.90;;;;;;;4.64;100.00;93616.97;4978085;28;20172;-68
2022/11/21 00:41:46;;;;;;;1999.90;999.90;;;;;;;4.64;100.00;93625.09;4978316;28;20180;-69
2022/11/21 00:44:11;;;;;;;1999.90;999.90;;;;;;;4.64;100.00;93622.38;4978315;28;20212;-69
2022/11/21 00:46:37;;;;;;;1999.90;999.90;;;;;;;4.67;100.00;93626.97;4978871;28;20186;-70
2022/11/21 00:49:02;;;;;;;1999.90;999.90;;;;;;;4.67;100.00;93637.78;4978337;28;20172;-70
2022/11/21 00:51:27;;;;;;;1999.90;999.90;;;;;;;4.72;100.00;93645.41;4978136;28;20183;-70
2022/11/21 00:53:53;;;;;;;1999.90;999.90;;;;;;;4.69;100.00;93654.34;4978091;28;20180;-60
2022/11/21 00:56:18;;;;;;;1999.90;999.90;;;;;;;4.71;100.00;93660.13;4978521;28;20180;-61
2022/11/21 00:58:43;;;;;;;1999.90;999.90;;;;;;;4.70;100.00;93664.00;4978227;28;20180;-61
2022/11/21 01:01:11;;;;;;;1999.90;999.90;;;;;;;4.64;100.00;93681.84;4978103;28;20218;-60
2022/11/21 01:03:37;;;;;;;1999.90;999.90;;;;;;;4.66;100.00;93684.91;4977790;28;20212;-60
2022/11/21 01:06:13;;;;;;;1999.90;999.90;;;;;;;4.66;100.00;93698.44;4977733;28;20549;-61
2022/11/21 01:08:42;;;;;;;1999.90;999.90;;;;;;;4.73;100.00;93701.03;4978365;28;20164;-61
2022/11/21 01:11:10;;;;;;;1999.90;999.90;;;;;;;4.71;100.00;93704.16;4978535;28;20191;-62
2022/11/21 01:13:36;;;;;;;1999.90;999.90;;;;;;;4.72;100.00;93715.72;4978102;28;20172;-73
2022/11/21 01:16:16;;;;;;;1999.90;999.90;;;;;;;4.72;100.00;93721.13;4977972;28;20176;-60
2022/11/21 01:18:41;;;;;;;1999.90;999.90;;;;;;;4.74;100.00;93726.88;4978598;28;20180;-61
2022/11/21 01:21:16;;;;;;;1999.90;999.90;;;;;;;4.77;100.00;93726.09;4978153;28;20184;-61
2022/11/21 01:23:42;;;;;;;1999.90;999.90;;;;;;;4.76;100.00;93733.41;4978425;28;20210;-61
2022/11/21 01:26:10;;;;;;;1999.90;999.90;;;;;;;4.77;100.00;93724.13;4978546;28;20184;-61
2022/11/21 01:28:36;;;;;;;1999.90;999.90;;;;;;;4.81;100.00;93719.44;4977706;28;20172;-60
2022/11/21 01:31:06;;;;;;;1999.90;999.90;;;;;;;4.84;100.00;93726.00;4977554;28;20184;-65
2022/11/21 01:33:32;;;;;;;1999.90;999.90;;;;;;;4.85;100.00;93730.22;4978473;28;20168;-69
2022/11/21 01:36:08;;;;;;;1999.90;999.90;;;;;;;4.87;100.00;93738.66;4978089;28;20179;-70
2022/11/21 01:38:33;;;;;;;1999.90;999.90;;;;;;;4.88;100.00;93743.69;4977666;28;20211;-70
2022/11/21 01:40:59;;;;;;;1999.90;999.90;;;;;;;4.90;100.00;93754.09;4978175;28;20219;-69
2022/11/21 01:43:24;;;;;;;1999.90;999.90;;;;;;;4.94;100.00;93760.22;4977379;28;20203;-68
2022/11/21 01:45:54;;;;;;;1999.90;999.90;;;;;;;4.94;100.00;93766.41;4977587;28;20176;-68
2022/11/21 01:48:27;;;;;;;1999.90;999.90;;;;;;;5.02;100.00;93777.88;4978204;28;20180;-73
2022/11/21 01:50:55;;;;;;;1999.90;999.90;;;;;;;5.04;100.00;93780.94;4977507;28;20196;-59
2022/11/21 01:53:20;;;;;;;1999.90;999.90;;;;;;;5.06;100.00;93798.28;4980893;28;20176;-62
2022/11/21 01:55:46;;;;;;;1999.90;999.90;;;;;;;5.06;100.00;93811.81;4981710;28;20227;-62
2022/11/21 01:58:12;;;;;;;1999.90;999.90;;;;;;;5.11;100.00;93818.72;4981374;28;20207;-62
2022/11/21 02:00:41;;;;;;;1999.90;999.90;;;;;;;5.05;100.00;93836.56;4981321;28;20271;-62
2022/11/21 02:03:11;;;;;;;1999.90;999.90;;;;;;;5.12;100.00;93841.88;4981437;28;20259;-62
2022/11/21 02:05:39;;;;;;;1999.90;999.90;;;;;;;5.11;100.00;93840.34;4981072;28;20270;-62
2022/11/21 02:08:18;;;;;;;1999.90;999.90;;;;;;;5.12;100.00;93842.66;4981247;28;20184;-60
2022/11/21 02:10:55;;;;;;;1999.90;999.90;;;;;;;5.12;100.00;93858.88;4981570;28;20265;-63
2022/11/21 02:13:21;;;;;;;1999.90;999.90;;;;;;;5.17;100.00;93860.38;4980929;28;20229;-63
2022/11/21 02:15:47;;;;;;;1999.90;999.90;;;;;;;5.13;100.00;93870.50;4981529;28;20184;-62
2022/11/21 02:18:12;;;;;;;1999.90;999.90;;;;;;;5.15;100.00;93873.53;4980813;28;20326;-62
2022/11/21 02:20:43;;;;;;;1999.90;999.90;;;;;;;5.11;100.00;93878.22;4980906;28;20187;-62
2022/11/21 02:23:23;;;;;;;1999.90;999.90;;;;;;;5.14;100.00;93888.25;4981506;28;20207;-63
2022/11/21 02:25:49;;;;;;;1999.90;999.90;;;;;;;5.07;100.00;93893.75;4981455;28;20291;-61
2022/11/21 02:28:18;;;;;;;1999.90;999.90;;;;;;;5.05;100.00;93906.88;4980909;28;20242;-67
2022/11/21 02:30:44;;;;;;;1999.90;999.90;;;;;;;5.02;100.00;93918.50;4980679;28;20211;-65
2022/11/21 02:33:10;;;;;;;1999.90;999.90;;;;;;;4.97;100.00;93922.44;4980836;28;20246;-64
2022/11/21 02:35:36;;;;;;;1999.90;999.90;;;;;;;4.97;100.00;93924.38;4980858;28;20184;-67
2022/11/21 02:38:12;;;;;;;1999.90;999.90;;;;;;;4.91;100.00;93923.28;4980874;28;20176;-66
2022/11/21 02:40:47;;;;;;;1999.90;999.90;;;;;;;4.93;100.00;93920.94;4980295;28;20184;-64
2022/11/21 02:43:23;;;;;;;1999.90;999.90;;;;;;;4.95;100.00;93918.63;4981199;28;20207;-62
2022/11/21 02:45:49;;;;;;;1999.90;999.90;;;;;;;4.94;100.00;93922.47;4980912;28;20266;-64
2022/11/21 02:48:15;;;;;;;1999.90;999.90;;;;;;;5.01;100.00;93923.16;4981296;28;20311;-71
2022/11/21 02:50:43;;;;;;;1999.90;999.90;;;;;;;5.01;100.00;93922.38;4980465;28;20187;-70
2022/11/21 02:53:12;;;;;;;1999.90;999.90;;;;;;;5.01;100.00;93944.03;4980309;28;20235;-71
2022/11/21 02:55:37;;;;;;;1999.90;999.90;;;;;;;4.93;100.00;93956.09;4976537;28;20229;-69
2022/11/21 02:58:03;;;;;;;1999.90;999.90;;;;;;;4.91;100.00;93950.31;4977624;28;20271;-69
2022/11/21 03:00:29;;;;;;;1999.90;999.90;;;;;;;4.92;100.00;93958.03;4977628;28;20177;-69
2022/11/21 03:02:55;;;;;;;1999.90;999.90;;;;;;;4.92;100.00;93954.56;4976084;28;20259;-60
2022/11/21 03:05:21;;;;;;;1999.90;999.90;;;;;;;4.90;100.00;93946.09;4976252;28;20203;-62
2022/11/21 03:07:47;;;;;;;1999.90;999.90;;;;;;;4.95;100.00;93945.66;4977330;28;20184;-62
2022/11/21 03:10:13;;;;;;;1999.90;999.90;;;;;;;5.04;100.00;93943.22;4976590;28;20176;-62
2022/11/21 03:12:40;;;;;;;1999.90;999.90;;;;;;;5.07;100.00;93948.59;4977375;28;20185;-62
2022/11/21 03:15:09;;;;;;;1999.90;999.90;;;;;;;5.09;100.00;93935.44;4976626;28;20273;-62
2022/11/21 03:17:34;;;;;;;1999.90;999.90;;;;;;;5.14;100.00;93958.59;4976403;28;20239;-63
2022/11/21 03:19:59;;;;;;;1999.90;999.90;;;;;;;5.04;100.00;93960.25;4976356;28;20177;-59
2022/11/21 03:22:25;;;;;;;1999.90;999.90;;;;;;;5.04;100.00;93970.28;4977069;28;20195;-65
2022/11/21 03:24:51;;;;;;;1999.90;999.90;;;;;;;5.01;100.00;93981.91;4976188;28;20208;-59
2022/11/21 03:27:16;;;;;;;1999.90;999.90;;;;;;;4.95;100.00;93978.13;4977376;28;20182;-60
2022/11/21 03:29:41;;;;;;;1999.90;999.90;;;;;;;4.85;100.00;93987.09;4976097;28;20542;-59
2022/11/21 03:32:07;;;;;;;1999.90;999.90;;;;;;;4.83;100.00;93970.50;4976252;28;20176;-59
2022/11/21 03:34:32;;;;;;;1999.90;999.90;;;;;;;4.78;100.00;93973.63;4976691;28;20173;-59
2022/11/21 03:36:58;;;;;;;1999.90;999.90;;;;;;;4.73;100.00;93965.97;4976916;28;20227;-59
2022/11/21 03:39:23;;;;;;;1999.90;999.90;;;;;;;4.69;100.00;93966.00;4976726;28;20171;-59
2022/11/21 03:41:48;;;;;;;1999.90;999.90;;;;;;;4.64;100.00;93968.34;4976404;28;20218;-59
2022/11/21 03:44:14;;;;;;;1999.90;999.90;;;;;;;4.58;100.00;93959.91;4976087;28;20192;-59
2022/11/21 03:46:42;;;;;;;1999.90;999.90;;;;;;;4.55;100.00;93954.56;4976221;28;20509;-59
2022/11/21 03:49:08;;;;;;;1999.90;999.90;;;;;;;4.49;100.00;93948.81;4976693;28;20168;-59
2022/11/21 03:51:34;;;;;;;1999.90;999.90;;;;;;;4.44;100.00;93940.38;4976148;28;20169;-59
2022/11/21 03:53:59;;;;;;;1999.90;999.90;;;;;;;4.38;100.00;93926.53;4978564;28;20294;-59
2022/11/21 03:56:25;;;;;;;1999.90;999.90;;;;;;;4.41;100.00;93911.44;4979849;28;20172;-60
2022/11/21 03:58:51;;;;;;;1999.90;999.90;;;;;;;4.40;100.00;93904.50;4996413;28;20240;-61
2022/11/21 04:01:17;;;;;;;1999.90;999.90;;;;;;;4.36;100.00;93903.75;4979312;28;20172;-66
2022/11/21 04:03:42;;;;;;;1999.90;999.90;;;;;;;4.45;100.00;93879.75;4979344;28;20208;-66
2022/11/21 04:06:09;;;;;;;1999.90;999.90;;;;;;;4.43;100.00;93879.38;4978796;28;20266;-67
2022/11/21 04:08:35;;;;;;;1999.90;999.90;;;;;;;4.49;100.00;93880.47;4979382;28;20168;-67
2022/11/21 04:11:00;;;;;;;1999.90;999.90;;;;;;;4.56;100.00;93877.69;4979202;28;20230;-67
2022/11/21 04:13:26;;;;;;;1999.90;999.90;;;;;;;4.57;100.00;93876.53;4978756;28;20172;-67
2022/11/21 04:15:51;;;;;;;1999.90;999.90;;;;;;;4.60;100.00;93881.13;4978319;28;20228;-62
2022/11/21 04:18:17;;;;;;;1999.90;999.90;;;;;;;4.66;100.00;93879.53;4978445;28;20180;-63
2022/11/21 04:20:43;;;;;;;1999.90;999.90;;;;;;;4.70;100.00;93891.81;4979179;28;20164;-61
2022/11/21 04:23:08;;;;;;;1999.90;999.90;;;;;;;4.76;100.00;93900.25;4978726;28;20207;-62
2022/11/21 04:25:34;;;;;;;1999.90;999.90;;;;;;;4.81;100.00;93913.34;4979113;28;20172;-62
2022/11/21 04:28:01;;;;;;;1999.90;999.90;;;;;;;4.83;100.00;93927.22;4978582;28;20211;-61
2022/11/21 04:30:28;;;;;;;1999.90;999.90;;;;;;;4.87;100.00;93938.78;4978467;28;20283;-61
2022/11/21 04:32:54;;;;;;;1999.90;999.90;;;;;;;4.96;100.00;93952.59;4978415;28;20241;-62
2022/11/21 04:35:21;;;;;;;1999.90;999.90;;;;;;;5.00;100.00;93977.66;4978346;28;20212;-62
2022/11/21 04:37:46;;;;;;;1999.90;999.90;;;;;;;5.04;100.00;93986.50;4978065;28;20180;-57
2022/11/21 04:40:13;;;;;;;1999.90;999.90;;;;;;;5.07;100.00;93996.53;4978473;28;20176;-58
2022/11/21 04:42:46;;;;;;;1999.90;999.90;;;;;;;5.07;100.00;93996.53;4978387;28;20214;-58
2022/11/21 04:45:13;;;;;;;1999.90;999.90;;;;;;;5.10;100.00;94020.06;4978651;28;20180;-58
2022/11/21 04:47:40;;;;;;;1999.90;999.90;;;;;;;5.12;100.00;94009.59;4978110;28;20176;-58
2022/11/21 04:50:06;;;;;;;1999.90;999.90;;;;;;;5.14;100.00;94012.69;4978842;28;20269;-58
2022/11/21 04:52:32;;;;;;;1999.90;999.90;;;;;;;5.09;100.00;93999.59;4978275;28;20203;-62
2022/11/21 04:54:57;;;;;;;1999.90;999.90;;;;;;;5.07;100.00;93985.72;4977700;28;20306;-61
2022/11/21 04:57:23;;;;;;;1999.90;999.90;;;;;;;5.00;100.00;93964.91;4977914;28;20183;-58
2022/11/21 04:59:48;;;;;;;1999.90;999.90;;;;;;;4.99;100.00;93951.78;4978646;28;20235;-57
2022/11/21 05:02:14;;;;;;;1999.90;999.90;;;;;;;4.98;100.00;93925.91;4978507;28;20176;-59
2022/11/21 05:04:39;;;;;;;1999.90;999.90;;;;;;;4.96;100.00;93898.50;4978250;28;20204;-59
2022/11/21 05:07:05;;;;;;;1999.90;999.90;;;;;;;4.90;100.00;93857.63;4978943;28;20248;-58
2022/11/21 05:09:30;;;;;;;1999.90;999.90;;;;;;;4.91;100.00;93839.44;4977899;28;20199;-58
2022/11/21 05:14:39;;;;;;;1999.90;999.90;;;;;;;4.89;100.00;93796.59;4995701;28;20186;-70
2022/11/21 05:17:05;;;;;;;1999.90;999.90;;;;;;;4.88;100.00;93783.50;4977921;28;20182;-68
2022/11/21 05:19:30;;;;;;;1999.90;999.90;;;;;;;4.86;100.00;93766.88;4978337;28;20176;-68
2022/11/21 05:21:55;;;;;;;1999.90;999.90;;;;;;;4.78;100.00;93763.53;4977861;28;20180;-73
2022/11/21 05:24:21;;;;;;;1999.90;999.90;;;;;;;4.75;100.00;93755.44;4977993;28;20204;-72
2022/11/21 05:26:46;;;;;;;1999.90;999.90;;;;;;;4.71;100.00;93743.91;4978574;28;20176;-69
2022/11/21 05:29:11;;;;;;;1999.90;999.90;;;;;;;4.73;100.00;93736.19;4981991;28;20214;-66
2022/11/21 05:31:37;;;;;;;1999.90;999.90;;;;;;;4.75;100.00;93729.19;4999197;28;20214;-69
2022/11/21 05:34:02;;;;;;;1999.90;999.90;;;;;;;4.75;100.00;93718.38;4982063;28;20214;-69
2022/11/21 05:36:28;;;;;;;1999.90;999.90;;;;;;;4.71;100.00;93716.88;4981455;28;20183;-68
2022/11/21 05:38:53;;;;;;;1999.90;999.90;;;;;;;4.75;100.00;93712.19;4981792;28;20175;-68
2022/11/21 05:41:18;;;;;;;1999.90;999.90;;;;;;;4.69;100.00;93708.41;4981589;28;20175;-68
2022/11/21 05:43:46;;;;;;;1999.90;999.90;;;;;;;4.68;100.00;93704.19;4981567;28;20229;-68
2022/11/21 05:46:14;;;;;;;1999.90;999.90;;;;;;;4.66;100.00;93712.69;4981905;28;20247;-68
2022/11/21 05:48:40;;;;;;;1999.90;999.90;;;;;;;4.61;100.00;93713.16;4982152;28;20208;-60
2022/11/21 05:51:06;;;;;;;1999.90;999.90;;;;;;;4.63;100.00;93704.66;4981533;28;20246;-59
2022/11/21 05:53:32;;;;;;;1999.90;999.90;;;;;;;4.56;100.00;93712.84;4981127;28;20176;-59
2022/11/21 05:56:09;;;;;;;1999.90;999.90;;;;;;;4.55;100.00;93700.50;4980984;28;20228;-59
2022/11/21 05:58:35;;;;;;;1999.90;999.90;;;;;;;4.59;100.00;93701.22;4981529;28;20601;-59
2022/11/21 06:01:01;;;;;;;1999.90;999.90;;;;;;;4.59;100.00;93706.63;4980884;28;20259;-60
2022/11/21 06:03:30;;;;;;;1999.90;999.90;;;;;;;4.64;100.00;93698.06;4980982;28;20208;-60
2022/11/21 06:05:59;;;;;;;1999.90;999.90;;;;;;;4.63;100.00;93691.13;4981162;28;20212;-66
2022/11/21 06:08:26;;;;;;;1999.90;999.90;;;;;;;4.66;100.00;93682.22;4981291;28;20176;-69
2022/11/21 06:10:52;;;;;;;1999.90;999.90;;;;;;;4.68;100.00;93683.34;4981561;28;20515;-66
2022/11/21 06:13:21;;;;;;;1999.90;999.90;;;;;;;4.68;100.00;93682.56;4981197;28;20169;-66
2022/11/21 06:15:57;;;;;;;1999.90;999.90;;;;;;;4.71;100.00;93676.34;4980837;28;20228;-67
2022/11/21 06:18:22;;;;;;;1999.90;999.90;;;;;;;4.70;100.00;93634.28;4980859;28;20227;-66
2022/11/21 06:20:48;;;;;;;1999.90;999.90;;;;;;;4.72;100.00;93621.09;4980755;28;20176;-66
2022/11/21 06:23:14;;;;;;;1999.90;999.90;;;;;;;4.77;100.00;93613.28;4980855;28;20212;-67
2022/11/21 06:25:39;;;;;;;1999.90;999.90;;;;;;;4.79;100.00;93596.66;4981632;28;20173;-63
2022/11/21 06:28:04;;;;;;;1999.90;999.90;;;;;;;4.78;100.00;93600.53;4980758;28;20172;-67
2022/11/21 06:30:32;;;;;;;1999.90;999.90;;;;;;;4.83;100.00;93581.13;4980713;28;20172;-67
2022/11/21 06:32:58;;;;;;;1999.90;999.90;;;;;;;4.88;100.00;93569.88;4980571;28;20176;-68
2022/11/21 06:35:23;;;;;;;1999.90;999.90;;;;;;;4.92;100.00;93557.06;4981125;28;20179;-67
2022/11/21 06:37:48;;;;;;;1999.90;999.90;;;;;;;4.94;100.00;93549.28;4980102;28;20184;-67
2022/11/21 06:40:14;;;;;;;1999.90;999.90;;;;;;;4.98;100.00;93549.97;4980300;28;20211;-67
2022/11/21 06:42:39;;;;;;;1999.90;999.90;;;;;;;5.02;100.00;93542.56;4980420;28;20200;-60
2022/11/21 06:45:05;;;;;;;1999.90;999.90;;;;;;;5.09;100.00;93539.75;4980858;28;20168;-63
2022/11/21 06:47:34;;;;;;;1999.90;999.90;;;;;;;5.07;100.00;93539.41;4980363;28;20168;-58
2022/11/21 06:49:59;;;;;;;1999.90;999.90;;;;;;;5.08;100.00;93551.75;4980104;28;20175;-57
2022/11/21 06:52:25;;;;;;;1999.90;999.90;;;;;;;5.13;100.00;93552.03;4980332;28;20172;-57
2022/11/21 06:54:50;;;;;;;1999.90;999.90;;;;;;;5.15;100.00;93560.50;4980439;28;20220;-58
2022/11/21 06:57:16;;;;;;;1999.90;999.90;;;;;;;5.17;100.00;93566.25;4980173;28;20180;-58
2022/11/21 06:59:41;;;;;;;1999.90;999.90;;;;;;;5.17;100.00;93584.44;4980502;28;20526;-58
2022/11/21 07:02:14;;;;;;;1999.90;999.90;;;;;;;5.17;100.00;93608.78;4980607;28;20172;-68
2022/11/21 07:04:39;;;;;;;1999.90;999.90;;;;;;;5.20;100.00;93616.06;4979944;28;20218;-70
2022/11/21 07:07:05;;;;;;;1999.90;999.90;;;;;;;5.23;100.00;93642.28;4979990;28;20180;-68
2022/11/21 07:09:32;;;;;;;1999.90;999.90;;;;;;;5.25;100.00;93672.44;4980082;28;20279;-67
2022/11/21 07:13:20;;;;;;;1999.90;999.90;;;;;;;5.29;100.00;93711.00;4980021;28;20213;-68
2022/11/21 07:14:43;;;;;;;1999.90;999.90;;;;;;;5.28;100.00;93741.97;4996830;28;20176;-68
2022/11/21 07:17:13;;;;;;;1999.90;999.90;;;;;;;5.40;100.00;93760.31;4979818;28;20231;-68
2022/11/21 07:19:39;;;;;;;1999.90;999.90;;;;;;;5.42;100.00;93795.84;4979768;28;20214;-64
2022/11/21 07:22:04;;;;;;;1999.90;999.90;;;;;;;5.48;100.00;93815.88;4980191;28;20266;-63
2022/11/21 07:24:30;;;;;;;1999.90;999.90;;;;;;;5.38;100.00;93833.78;4980069;28;20207;-70
2022/11/21 07:26:55;;;;;;;1999.90;999.90;;;;;;;5.52;100.00;93859.88;4980112;28;20177;-62
2022/11/21 07:29:20;;;;;;;1999.90;999.90;;;;;;;5.66;100.00;93887.53;4979762;28;20176;-61
2022/11/21 07:31:46;;;;;;;1999.90;999.90;;;;;;;5.84;100.00;93906.28;4980059;28;20181;-62
2022/11/21 07:34:11;;;;;;;1999.90;999.90;;;;;;;5.88;100.00;93953.03;4979597;28;20180;-61
2022/11/21 07:36:37;;;;;;;1999.90;999.90;;;;;;;5.79;100.00;93996.06;4979496;28;20173;-62
2022/11/21 07:39:02;;;;;;;1999.90;999.90;;;;;;;5.73;100.00;94022.06;4979462;28;20172;-64
2022/11/21 07:41:28;;;;;;;1999.90;999.90;;;;;;;5.74;100.00;94039.84;4979420;28;20177;-58
2022/11/21 07:43:53;;;;;;;1999.90;999.90;;;;;;;6.37;100.00;94055.28;4979857;28;20200;-59
2022/11/21 07:46:18;;;;;;;1999.90;999.90;;;;;;;6.39;100.00;94090.91;4979704;28;20189;-58
2022/11/21 07:48:44;;;;;;;1999.90;999.90;;;;;;;6.22;100.00;94129.84;4979011;28;20228;-59
2022/11/21 07:51:09;;;;;;;1999.90;999.90;;;;;;;6.16;100.00;94155.88;4978772;28;20185;-58
2022/11/21 07:53:35;;;;;;;1999.90;999.90;;;;;;;6.15;100.00;94173.28;4979886;28;20178;-58
2022/11/21 07:56:00;;;;;;;1999.90;999.90;;;;;;;5.95;100.00;94180.47;4979372;28;20222;-67
2022/11/21 07:58:26;;;;;;;1999.90;999.90;;;;;;;6.01;100.00;94184.31;4979563;28;20177;-62
2022/11/21 08:00:52;;;;;;;1999.90;999.90;;;;;;;6.14;100.00;94190.72;4979511;28;20178;-63
2022/11/21 08:03:18;;;;;;;1999.90;999.90;;;;;;;7.43;100.00;94204.47;4978959;28;20231;-63
2022/11/21 08:05:43;;;;;;;1999.90;999.90;;;;;;;8.47;100.00;94249.28;4979011;28;20175;-63
2022/11/21 08:08:11;;;;;;;1999.90;999.90;;;;;;;9.45;100.00;94307.97;4979072;28;20176;-63
2022/11/21 08:10:39;;;;;;;1999.90;999.90;;;;;;;10.06;100.00;94354.53;4979195;28;20187;-63
2022/11/21 08:13:04;;;;;;;1999.90;999.90;;;;;;;9.49;100.00;94393.13;4978756;28;20202;-63
2022/11/21 08:15:29;;;;;;;1999.90;999.90;;;;;;;8.98;100.00;94396.47;4978954;28;20181;-60
2022/11/21 08:17:55;;;;;;;1999.90;999.90;;;;;;;8.31;100.00;94404.97;4978479;28;20186;-69
2022/11/21 08:20:20;;;;;;;1999.90;999.90;;;;;;;7.90;100.00;94393.53;4979228;28;20186;-69
2022/11/21 08:22:46;;;;;;;1999.90;999.90;;;;;;;7.70;100.00;94384.53;4978298;28;20208;-70
2022/11/21 08:25:11;;;;;;;1999.90;999.90;;;;;;;7.56;100.00;94387.44;4979056;28;20176;-71
2022/11/21 08:27:38;;;;;;;1999.90;999.90;;;;;;;7.27;100.00;94378.09;4979322;28;20164;-71
2022/11/21 08:30:06;;;;;;;1999.90;999.90;;;;;;;7.10;100.00;94368.22;4978336;28;20183;-70
2022/11/21 08:32:31;;;;;;;1999.90;999.90;;;;;;;6.99;100.00;94378.44;4979049;28;20172;-69
2022/11/21 08:34:56;;;;;;;1999.90;999.90;;;;;;;6.88;100.00;94371.59;4979077;28;20194;-69
2022/11/21 08:37:22;;;;;;;1999.90;999.90;;;;;;;6.82;100.00;94363.13;4978734;28;20180;-62
2022/11/21 08:39:47;;;;;;;1999.90;999.90;;;;;;;6.90;100.00;94353.72;4978516;28;20209;-62
2022/11/21 08:42:13;;;;;;;1999.90;999.90;;;;;;;6.82;100.00;94352.28;4995362;28;20222;-62
2022/11/21 08:44:38;;;;;;;1999.90;999.90;;;;;;;6.73;100.00;94339.19;4978263;28;20172;-61
2022/11/21 08:47:05;;;;;;;1999.90;999.90;;;;;;;6.70;100.00;94339.22;4978377;28;20237;-62
2022/11/21 08:49:31;;;;;;;1999.90;999.90;;;;;;;6.74;100.00;94331.84;4978382;28;20199;-62
2022/11/21 08:51:56;;;;;;;1999.90;999.90;;;;;;;6.61;100.00;94342.44;4977842;28;20189;-59
2022/11/21 08:54:23;;;;;;;1999.90;999.90;;;;;;;6.60;100.00;94332.72;4978095;28;20230;-60
2022/11/21 08:56:49;;;;;;;1999.90;999.90;;;;;;;6.53;100.00;94332.06;4978393;28;20174;-62
2022/11/21 08:59:15;;;;;;;1999.90;999.90;;;;;;;6.57;100.00;94320.00;4978047;28;20185;-62
2022/11/21 09:01:41;;;;;;;1999.90;999.90;;;;;;;6.62;100.00;94318.75;4977942;28;20179;-65
2022/11/21 09:04:06;;;;;;;1999.90;999.90;;;;;;;6.63;100.00;94306.75;4978002;28;20221;-63
2022/11/21 09:06:32;;;;;;;1999.90;999.90;;;;;;;6.73;100.00;94314.00;4978062;28;20220;-62
2022/11/21 09:08:58;;;;;;;1999.90;999.90;;;;;;;6.79;100.00;94315.09;4978077;28;20187;-62
2022/11/21 09:11:26;;;;;;;1999.90;999.90;;;;;;;7.13;100.00;94315.09;4978704;28;20185;-59
2022/11/21 09:19:21;;;;;;;1999.90;999.90;;;;;;;7.41;100.00;94350.78;4995308;28;20289;-65
2022/11/21 09:21:50;;;;;;;1999.90;999.90;;;;;;;7.43;100.00;94359.25;4977843;28;20233;-63
2022/11/21 09:24:16;;;;;;;1999.90;999.90;;;;;;;7.82;100.00;94354.06;4977706;28;20290;-62
2022/11/21 09:26:42;;;;;;;1999.90;999.90;;;;;;;8.42;100.00;94358.59;4977471;28;20269;-64
2022/11/21 09:29:09;;;;;;;1999.90;999.90;;;;;;;9.70;100.00;94373.59;4978345;28;20185;-69
2022/11/21 09:31:36;;;;;;;1999.90;999.90;;;;;;;10.47;100.00;94392.13;4978552;28;20516;-62
2022/11/21 09:34:01;;;;;;;1999.90;999.90;;;;;;;10.32;100.00;94401.84;4977775;28;20187;-62
2022/11/21 09:36:27;;;;;;;1999.90;999.90;;;;;;;10.37;100.00;94412.28;4977772;28;20178;-62
2022/11/21 09:38:52;;;;;;;1999.90;999.90;;;;;;;11.11;100.00;94416.66;4977688;28;20180;-62
2022/11/21 09:44:32;;;;;;;1999.90;999.90;;;;;;;12.07;100.00;94425.28;4994695;28;20278;-61
2022/11/21 09:47:22;;;;;;;1999.90;999.90;;;;;;;11.84;100.00;94419.34;4977664;28;20195;-62
2022/11/21 09:50:38;;;;;;;1999.90;999.90;;;;;;;12.16;100.00;94410.94;4978215;28;20622;-69
2022/11/21 09:53:11;;;;;;;1999.90;999.90;;;;;;;12.48;100.00;94413.47;4919073;29;20226;-70
2022/11/21 09:55:43;;;;;;;1999.90;999.90;;;;;;;13.01;100.00;94404.34;4918382;29;20314;-70
2022/11/21 09:58:55;;;;;;;1999.90;999.90;;;;;;;12.77;100.00;94414.09;4940322;29;20285;-70
2022/11/21 10:01:20;;;;;;;1999.90;999.90;;;;;;;12.29;100.00;94406.25;4953678;29;20193;-70
2022/11/21 10:03:49;;;;;;;1999.90;999.90;;;;;;;12.23;100.00;94405.25;4953782;29;20284;-68
2022/11/21 10:06:47;;;;;;;1999.90;999.90;;;;;;;11.03;100.00;94401.66;4954158;28;20195;-62
2022/11/21 10:09:45;;;;;;;1999.90;999.90;;;;;;;10.61;100.00;94398.03;4920535;29;20273;-63
2022/11/21 10:12:35;;;;;;;1999.90;999.90;;;;;;;10.17;100.00;94397.91;4954745;28;20181;-62
2022/11/21 10:15:25;;;;;;;1999.90;999.90;;;;;;;10.06;100.00;94403.63;4957975;28;20168;-61
2022/11/21 10:18:14;;;;;;;1999.90;999.90;;;;;;;9.87;100.00;94396.97;4957209;28;20188;-62
2022/11/21 10:20:49;;;;;;;1999.90;999.90;;;;;;;9.74;100.00;94398.84;4956810;29;20197;-62
2022/11/21 10:23:44;;;;;;;1999.90;999.90;;;;;;;9.62;100.00;94390.53;4956843;28;20198;-69
2022/11/21 10:26:30;;;;;;;1999.90;999.90;;;;;;;9.37;100.00;94390.25;4957299;29;20179;-69
2022/11/21 10:29:03;;;;;;;1999.90;999.90;;;;;;;9.10;100.00;94384.94;4957678;29;20258;-63
2022/11/21 10:31:34;;;;;;;1999.90;999.90;;;;;;;8.96;100.00;94385.19;4957261;29;20171;-63
2022/11/21 10:34:02;;;;;;;1999.90;999.90;;;;;;;8.92;100.00;94373.63;4957351;29;20232;-64
2022/11/21 10:36:35;;;;;;;1999.90;999.90;;;;;;;8.65;100.00;94362.06;4956776;29;20614;-63
2022/11/21 10:39:31;;;;;;;1999.90;999.90;;;;;;;8.55;100.00;94357.56;4957579;29;20320;-63
2022/11/21 10:42:15;;;;;;;1999.90;999.90;;;;;;;8.49;100.00;94355.75;4954412;29;20201;-69
2022/11/21 10:47:31;;;;;;;1999.90;999.90;;;;;;;8.37;100.00;94359.03;4958200;29;20176;-66
2022/11/21 10:50:09;;;;;;;1999.90;999.90;;;;;;;8.27;100.00;94363.47;4956840;28;20174;-65
2022/11/21 10:56:07;;;;;;;1999.90;999.90;;;;;;;8.05;100.00;94345.94;4957317;28;1110267;-66
2022/11/21 10:58:41;;;;;;;1999.90;999.90;;;;;;;7.96;100.00;94347.66;4981010;28;20273;-66
2022/11/21 11:01:37;;;;;;;1999.90;999.90;;;;;;;8.02;100.00;94346.78;4980665;28;20263;-63
2022/11/21 11:04:08;;;;;;;1999.90;999.90;;;;;;;7.94;100.00;94331.75;4996461;28;20231;-59
2022/11/21 11:06:34;;;;;;;1999.90;999.90;;;;;;;8.02;100.00;94340.56;4980654;28;20179;-61
2022/11/21 11:09:00;;;;;;;1999.90;999.90;;;;;;;7.99;100.00;94331.28;4980094;28;20259;-61
2022/11/21 11:11:25;;;;;;;1999.90;999.90;;;;;;;7.90;100.00;94325.59;4980160;28;20363;-61
2022/11/21 11:13:58;;;;;;;1999.90;999.90;;;;;;;7.91;100.00;94324.44;4980127;28;20171;-60
2022/11/21 11:16:26;;;;;;;1999.90;999.90;;;;;;;7.94;100.00;94322.84;4980328;28;20249;-60